ADDS TAF Board (Experimental) INFO Settings
IDs: Format: Expanded Condensed

KDFW - Dallas-Ft Worth Intl, TX, US

Issued at 2335 UTC 10 Feb 2016
Updated at: 0221 UTC 11 Feb 2016
Time0153Z 11/03Z 11/04Z 11/05Z 11/06Z 11/07Z 11/08Z 11/09Z 11/10Z 11/11Z 11/12Z 11/13Z 11/14Z 11/15Z
Type OBS PRVL PRVL PRVL PRVL PRVL PRVL PRVL PRVL PRVL PRVL PRVL PRVL PRVL
VIS 10 >6 >6 >6 >6 >6 >6 >6 >6 >6 >6 >6 >6 >6
CIG -- -- -- -- -- -- -- -- -- -- -- -- -- --
Cover CLR SKC SKC SKC SKC SKC SKC SKC SKC SKC SKC SKC SKC SKC
FltCat VFR VFR VFR VFR VFR VFR VFR VFR VFR VFR VFR VFR VFR VFR
WX -- -- -- -- -- -- -- -- -- -- -- -- -- --
WDir 180 230 230 230 230 230 230 230 230 230 230 230 230 340
WSpd 9 13 13 13 13 13 13 13 13 13 13 13 13 9
WGst -- -- -- -- -- -- -- -- -- -- -- -- -- --
R13/31
XWnd -6 -13 -13 -13 -13 -13 -13 -13 -13 -13 -13 -13 -13 4
HWnd 6 -1 -1 -1 -1 -1 -1 -1 -1 -1 -1 -1 -1 -8
R17/35
XWnd 0 -10 -10 -10 -10 -10 -10 -10 -10 -10 -10 -10 -10 -3
HWnd 9 8 8 8 8 8 8 8 8 8 8 8 8 -8
R18/36
XWnd 0 -10 -10 -10 -10 -10 -10 -10 -10 -10 -10 -10 -10 -3
HWnd 9 8 8 8 8 8 8 8 8 8 8 8 8 -8

NOTE: TEMPO conditions in [brackets]. Keep in mind TEMPO conditions might be better (lower impact) than prevailing conditions.

Raw TAF
KDFW 102335Z 1100/1206 23013KT P6SM SKC
  FM111500 34009KT P6SM SKC


Raw METAR
KDFW 110153Z 18009KT 10SM CLR 14/00 A3006 RMK AO2 SLP177 T01390000
KDFW 110053Z 19008KT 10SM CLR 17/M01 A3006 RMK AO2 SLP179 T01671011
KDFW 102353Z 20010KT 10SM CLR 22/M01 A3007 RMK AO2 SLP179 T02171011 10233 20161 56024

METAR Board
Radar Display
Forecast Discussion

TAF Board Legend

Potential Impact
Threat None Slight Moderate High
Visibility (sm) ≥5.1 5.1>X≥3 3>X≥1 <1
Ceiling (100 ft) ≥30.1 30.1>X≥10 10>X≥5 <5
Wind Speed (kt) <10 10≤X<20 20≤X<30 ≥30
Wind Gust (kt) <15 15≤X<25 25≤X<35 ≥35
Weather No Wx Reported VCTS,-TS,-FZRA,SN TS,FZRA +TS,+FZRA,+SN